Time;durP1;ratioP1;P1;durP2;ratioP2;P2;SDS_P1;SDS_P2;PMS_P1;PMS_P2;Temp;Humidity;BMP_temperature;BMP_pressure;BME280_temperature;BME280_humidity;BME280_pressure;Samples;Min_cycle;Max_cycle;Signal;HPM_P1;HPM_P2
2022/10/05 00:01:49;;;;;;;9.50;7.90;;;15.50;99.90;;;;;;4855794;29;20055;-85
2022/10/05 00:04:17;;;;;;;11.48;7.65;;;15.50;99.90;;;;;;4871595;29;20033;-84
2022/10/05 00:07:05;;;;;;;9.88;7.88;;;15.40;99.90;;;;;;4897362;29;20467;-85
2022/10/05 00:09:33;;;;;;;11.40;7.15;;;15.40;99.90;;;;;;4887107;29;20036;-86
2022/10/05 00:11:59;;;;;;;14.90;7.45;;;15.50;99.90;;;;;;4853071;29;20056;-85
2022/10/05 00:14:34;;;;;;;11.05;7.13;;;15.40;99.90;;;;;;4884310;29;20131;-85
2022/10/05 00:17:03;;;;;;;13.00;7.28;;;15.40;99.90;;;;;;4856402;29;20049;-86
2022/10/05 00:19:38;;;;;;;9.15;7.38;;;15.30;99.90;;;;;;4864843;29;20044;-86
2022/10/05 00:22:15;;;;;;;9.57;7.28;;;15.30;99.90;;;;;;4873059;29;20040;-85
2022/10/05 00:24:41;;;;;;;11.20;7.20;;;15.40;99.90;;;;;;4839611;29;20135;-84
2022/10/05 00:27:17;;;;;;;9.80;7.05;;;15.40;99.90;;;;;;4897120;29;20159;-85
2022/10/05 00:29:43;;;;;;;9.52;7.38;;;15.30;99.90;;;;;;4854540;29;20045;-85
2022/10/05 00:32:09;;;;;;;10.35;6.95;;;15.30;99.90;;;;;;4869622;29;20397;-85
2022/10/05 00:34:35;;;;;;;9.57;6.45;;;15.30;99.90;;;;;;4882634;29;20128;-85
2022/10/05 00:37:02;;;;;;;10.23;6.80;;;15.30;99.90;;;;;;4888332;29;20140;-86
2022/10/05 00:39:28;;;;;;;12.35;6.78;;;15.30;99.90;;;;;;4872009;29;20126;-85
2022/10/05 00:42:14;;;;;;;8.60;6.60;;;15.40;99.90;;;;;;4875966;29;20338;-85
2022/10/05 00:44:39;;;;;;;8.20;6.55;;;15.40;99.90;;;;;;4868014;29;20047;-85
2022/10/05 00:47:44;;;;;;;8.38;6.55;;;15.30;99.90;;;;;;4873007;29;20048;-85
2022/10/05 00:50:24;;;;;;;9.88;6.32;;;15.40;99.90;;;;;;4889292;29;20139;-86
2022/10/05 00:53:11;;;;;;;11.80;6.20;;;15.30;99.90;;;;;;4870312;29;20465;-85
2022/10/05 00:55:40;;;;;;;7.85;6.10;;;15.30;99.90;;;;;;4857490;29;20161;-85
2022/10/05 00:58:30;;;;;;;7.63;5.43;;;15.30;99.90;;;;;;4881231;29;20077;-86
2022/10/05 01:01:13;;;;;;;8.23;5.65;;;15.40;99.90;;;;;;4835106;29;20058;-86
2022/10/05 01:04:07;;;;;;;8.18;5.25;;;15.30;99.90;;;;;;4838770;29;20049;-86
2022/10/05 01:07:14;;;;;;;7.53;5.43;;;15.40;99.90;;;;;;4812219;29;20129;-85
2022/10/05 01:10:01;;;;;;;7.25;5.00;;;15.30;99.90;;;;;;4796735;29;20099;-86
2022/10/05 01:12:39;;;;;;;8.30;5.13;;;15.30;99.90;;;;;;4827456;29;20125;-85
2022/10/05 01:15:19;;;;;;;7.90;5.00;;;15.20;99.90;;;;;;4848578;29;20110;-85
2022/10/05 01:18:18;;;;;;;5.60;4.80;;;15.20;99.90;;;;;;4859342;29;20057;-85
2022/10/05 01:20:50;;;;;;;9.85;5.10;;;15.30;99.90;;;;;;4848771;29;20049;-85
2022/10/05 01:23:46;;;;;;;8.38;4.65;;;15.20;99.90;;;;;;4842924;29;20041;-85
2022/10/05 01:26:27;;;;;;;8.30;5.45;;;15.20;99.90;;;;;;4828828;29;20196;-85
2022/10/05 01:29:14;;;;;;;7.72;5.57;;;15.20;99.90;;;;;;4847871;29;20045;-85
2022/10/05 01:31:45;;;;;;;7.95;4.88;;;15.30;99.90;;;;;;4828842;29;20109;-86
2022/10/05 01:34:43;;;;;;;6.13;5.10;;;15.40;99.90;;;;;;4859253;29;20405;-85
2022/10/05 01:37:19;;;;;;;8.77;5.07;;;15.30;99.90;;;;;;4844647;29;20593;-85
2022/10/05 01:40:06;;;;;;;7.85;5.63;;;15.30;99.90;;;;;;4850270;29;20038;-85
2022/10/05 01:42:35;;;;;;;8.63;5.43;;;15.20;99.90;;;;;;4832242;29;20080;-85
2022/10/05 01:45:09;;;;;;;7.80;5.35;;;15.30;99.90;;;;;;4831899;29;20037;-85
2022/10/05 01:47:42;;;;;;;8.60;5.82;;;15.20;99.90;;;;;;4862358;29;20053;-85
2022/10/05 01:50:32;;;;;;;9.30;5.93;;;15.20;99.90;;;;;;4849013;29;20053;-85
2022/10/05 01:53:09;;;;;;;8.23;5.95;;;15.20;99.90;;;;;;4831396;29;20053;-85
2022/10/05 01:55:39;;;;;;;8.00;6.10;;;15.20;99.90;;;;;;4837398;29;20046;-85
2022/10/05 01:58:26;;;;;;;8.43;5.60;;;15.30;99.90;;;;;;4831002;29;20344;-84
2022/10/05 02:01:12;;;;;;;9.35;6.13;;;15.30;99.90;;;;;;4836376;29;20189;-85
2022/10/05 02:03:58;;;;;;;11.20;6.28;;;15.20;99.90;;;;;;4833342;29;20058;-86
2022/10/05 02:06:29;;;;;;;8.35;6.07;;;15.20;99.90;;;;;;4881522;29;20111;-85
2022/10/05 02:09:15;;;;;;;10.23;5.88;;;15.30;99.90;;;;;;4867021;29;20053;-85
2022/10/05 02:11:46;;;;;;;9.50;6.10;;;15.30;99.90;;;;;;4878737;29;20033;-85
2022/10/05 02:14:18;;;;;;;7.90;5.97;;;15.10;99.90;;;;;;4879496;29;20326;-85
2022/10/05 02:16:47;;;;;;;8.00;5.72;;;15.20;99.90;;;;;;4861355;29;20426;-86
2022/10/05 02:19:45;;;;;;;8.10;6.05;;;15.10;99.90;;;;;;4872755;29;20048;-85
2022/10/05 02:22:15;;;;;;;9.40;6.38;;;15.10;99.90;;;;;;4883619;29;20066;-85
2022/10/05 02:24:48;;;;;;;8.20;5.90;;;15.10;99.90;;;;;;4878862;29;20308;-85
2022/10/05 02:27:20;;;;;;;10.05;6.40;;;15.10;99.90;;;;;;4872164;29;20482;-85
2022/10/05 02:29:49;;;;;;;8.10;6.43;;;15.00;99.90;;;;;;4871921;29;20037;-85
2022/10/05 02:32:20;;;;;;;6.80;5.53;;;15.10;99.90;;;;;;4853003;29;20289;-85
2022/10/05 02:34:49;;;;;;;9.38;6.10;;;15.00;99.90;;;;;;4867780;29;20364;-85
2022/10/05 02:37:56;;;;;;;9.60;6.80;;;15.10;99.90;;;;;;4858619;29;20045;-86
2022/10/05 02:40:32;;;;;;;8.43;6.40;;;15.00;99.90;;;;;;4864319;29;20037;-85
2022/10/05 02:43:37;;;;;;;10.70;7.13;;;15.10;99.90;;;;;;4880999;29;20116;-85
2022/10/05 02:46:33;;;;;;;9.15;6.45;;;15.00;99.90;;;;;;4865620;29;20040;-85
2022/10/05 02:49:46;;;;;;;9.88;6.65;;;15.10;99.90;;;;;;4861702;29;20073;-85
2022/10/05 02:52:28;;;;;;;7.57;6.00;;;15.20;99.90;;;;;;4853740;29;20737;-85
2022/10/05 02:55:06;;;;;;;9.65;5.70;;;15.10;99.90;;;;;;4854957;29;20048;-86
2022/10/05 02:57:41;;;;;;;8.07;5.90;;;15.10;99.90;;;;;;4867063;29;20971;-85
2022/10/05 03:00:19;;;;;;;7.93;5.75;;;15.20;99.90;;;;;;4841818;29;20649;-86
2022/10/05 03:03:04;;;;;;;10.60;6.30;;;15.20;99.90;;;;;;4860658;29;20045;-85
2022/10/05 03:06:02;;;;;;;7.70;5.88;;;15.20;99.90;;;;;;4881079;29;20364;-86
2022/10/05 03:08:43;;;;;;;9.50;6.30;;;15.10;99.90;;;;;;4879681;29;20056;-85
2022/10/05 03:11:24;;;;;;;10.73;6.28;;;15.00;99.90;;;;;;4840232;29;20041;-85
2022/10/05 03:14:12;;;;;;;10.35;5.93;;;15.20;99.90;;;;;;4880924;29;20509;-85
2022/10/05 03:17:12;;;;;;;8.13;6.03;;;15.20;99.90;;;;;;4880228;29;21723;-85
2022/10/05 03:20:22;;;;;;;8.35;5.97;;;15.10;99.90;;;;;;4868069;29;20046;-85
2022/10/05 03:23:03;;;;;;;8.32;5.82;;;15.10;99.90;;;;;;4829650;29;20046;-85
2022/10/05 03:25:38;;;;;;;8.48;5.78;;;15.10;99.90;;;;;;4876275;29;20412;-85
2022/10/05 03:28:32;;;;;;;7.13;6.07;;;15.10;99.90;;;;;;4849490;29;20134;-85
2022/10/05 03:31:40;;;;;;;9.07;5.83;;;15.20;99.90;;;;;;4833789;29;20217;-85
2022/10/05 03:34:23;;;;;;;10.05;6.13;;;15.00;99.90;;;;;;4861009;29;20057;-85
2022/10/05 03:37:00;;;;;;;10.85;5.90;;;15.10;99.90;;;;;;4879075;29;20113;-85
2022/10/05 03:39:35;;;;;;;7.57;5.80;;;15.10;99.90;;;;;;4853971;29;20402;-85
2022/10/05 03:42:23;;;;;;;9.63;5.75;;;15.00;99.90;;;;;;4879086;29;20060;-86
2022/10/05 03:45:04;;;;;;;8.80;5.88;;;15.10;99.90;;;;;;4853468;29;20432;-85
2022/10/05 03:48:10;;;;;;;9.20;5.63;;;15.00;99.90;;;;;;4853132;29;20105;-85
2022/10/05 03:51:02;;;;;;;8.68;5.60;;;14.90;99.90;;;;;;4854114;29;20049;-85
2022/10/05 03:53:46;;;;;;;8.23;5.63;;;15.00;99.90;;;;;;4881494;29;20048;-85
2022/10/05 03:56:18;;;;;;;7.30;5.40;;;15.00;99.90;;;;;;4881011;29;20117;-84
2022/10/05 03:58:59;;;;;;;7.00;5.35;;;14.90;99.90;;;;;;4867306;29;20049;-85
2022/10/05 04:01:44;;;;;;;6.85;5.30;;;15.00;99.90;;;;;;4867844;29;20053;-85
2022/10/05 04:04:17;;;;;;;9.85;5.40;;;14.90;99.90;;;;;;4884629;29;20770;-86
2022/10/05 04:06:47;;;;;;;8.88;5.68;;;15.10;99.90;;;;;;4889554;29;20037;-85
2022/10/05 04:09:20;;;;;;;8.65;5.70;;;15.10;99.90;;;;;;4896912;29;20506;-86
2022/10/05 04:12:16;;;;;;;10.52;5.70;;;15.00;99.90;;;;;;4888667;29;20045;-85
2022/10/05 04:14:45;;;;;;;;;;;15.10;99.90;;;;;;4885445;29;20068;-85
2022/10/05 04:17:29;;;;;;;10.40;5.72;;;15.00;99.90;;;;;;4871135;29;19963;-85
2022/10/05 04:20:03;;;;;;;8.05;5.80;;;15.10;99.90;;;;;;4884079;29;20037;-85
2022/10/05 04:22:36;;;;;;;9.37;6.03;;;15.10;99.90;;;;;;4872290;29;20040;-85
2022/10/05 04:25:22;;;;;;;10.10;6.00;;;15.10;99.90;;;;;;4881593;29;20041;-85
2022/10/05 04:28:05;;;;;;;9.00;6.10;;;15.10;99.90;;;;;;4891896;29;20483;-85
2022/10/05 04:30:34;;;;;;;9.65;5.68;;;15.10;99.90;;;;;;4872111;29;20128;-86
2022/10/05 04:33:00;;;;;;;13.45;5.43;;;15.10;99.90;;;;;;4881599;29;20670;-86
2022/10/05 04:35:41;;;;;;;7.57;6.10;;;15.10;99.90;;;;;;4867391;29;20146;-85
2022/10/05 04:38:22;;;;;;;7.55;5.78;;;15.10;99.90;;;;;;4860885;29;20288;-86
2022/10/05 04:41:07;;;;;;;7.88;5.70;;;15.00;99.90;;;;;;4853688;29;20440;-85
2022/10/05 04:43:50;;;;;;;9.03;5.57;;;15.00;99.90;;;;;;4870096;29;20040;-85
2022/10/05 04:46:46;;;;;;;8.63;6.47;;;15.10;99.90;;;;;;4859788;29;20345;-85
2022/10/05 04:49:18;;;;;;;8.98;6.18;;;15.00;99.90;;;;;;4883700;29;20045;-85
2022/10/05 04:51:51;;;;;;;9.35;6.13;;;15.10;99.90;;;;;;4854479;29;20058;-85
2022/10/05 04:54:54;;;;;;;8.90;6.45;;;15.10;99.90;;;;;;4881250;29;20618;-85
2022/10/05 04:57:59;;;;;;;11.60;7.10;;;15.10;99.90;;;;;;4860465;29;20105;-85
2022/10/05 05:00:49;;;;;;;11.57;7.15;;;15.00;99.90;;;;;;4863218;29;20060;-85
2022/10/05 05:03:30;;;;;;;9.88;6.80;;;15.00;99.90;;;;;;4865819;29;20049;-85
2022/10/05 05:06:20;;;;;;;9.93;6.57;;;15.00;99.90;;;;;;4883056;29;20124;-85
2022/10/05 05:09:16;;;;;;;10.45;6.85;;;15.00;99.90;;;;;;4870038;29;20044;-85
2022/10/05 05:12:09;;;;;;;10.02;7.10;;;15.00;99.90;;;;;;4850558;29;20128;-84
2022/10/05 05:14:54;;;;;;;13.07;7.25;;;14.90;99.90;;;;;;4882801;29;20048;-85
2022/10/05 05:17:26;;;;;;;9.73;7.00;;;15.00;99.90;;;;;;4870811;29;20253;-85
2022/10/05 05:20:14;;;;;;;10.23;7.00;;;15.00;99.90;;;;;;4871281;29;20049;-84
2022/10/05 05:22:49;;;;;;;9.15;6.68;;;14.90;99.90;;;;;;4892491;29;20049;-85
2022/10/05 05:25:18;;;;;;;10.48;7.00;;;15.00;99.90;;;;;;4900968;29;20072;-85
2022/10/05 05:27:57;;;;;;;11.32;7.05;;;15.00;99.90;;;;;;4900542;29;20217;-85
2022/10/05 05:30:23;;;;;;;11.32;6.38;;;15.00;99.90;;;;;;4869663;29;20120;-85
2022/10/05 05:33:03;;;;;;;8.05;6.45;;;15.00;99.90;;;;;;4902250;29;20356;-85
2022/10/05 05:35:44;;;;;;;9.57;6.28;;;15.00;99.90;;;;;;4852719;29;20508;-85
2022/10/05 05:38:15;;;;;;;10.63;6.40;;;15.00;99.90;;;;;;4897859;29;20280;-85
2022/10/05 05:40:51;;;;;;;11.05;5.95;;;15.00;99.90;;;;;;4883409;29;22260;-85
2022/10/05 05:43:37;;;;;;;9.02;5.85;;;15.00;99.90;;;;;;4875019;29;20766;-85
2022/10/05 05:46:08;;;;;;;;;;;15.00;99.90;;;;;;4865617;29;20041;-85
2022/10/05 05:48:40;;;;;;;11.02;5.45;;;15.00;99.90;;;;;;4867263;29;19930;-85
2022/10/05 05:51:28;;;;;;;9.25;5.85;;;15.10;99.90;;;;;;4864987;29;20049;-85
2022/10/05 05:54:25;;;;;;;10.75;6.13;;;15.00;99.90;;;;;;4872362;29;20040;-85
2022/10/05 05:56:54;;;;;;;9.35;5.90;;;15.00;99.90;;;;;;4886019;29;20116;-85
2022/10/05 05:59:46;;;;;;;9.15;5.40;;;15.10;99.90;;;;;;4890219;29;20397;-85
2022/10/05 06:02:18;;;;;;;8.95;6.05;;;15.10;99.90;;;;;;4868752;29;20049;-85
2022/10/05 06:04:49;;;;;;;7.85;5.55;;;15.00;99.90;;;;;;4901380;29;20567;-85
2022/10/05 06:07:21;;;;;;;7.60;5.63;;;15.00;99.90;;;;;;4871728;29;20124;-86
2022/10/05 06:09:52;;;;;;;9.27;5.45;;;15.10;99.90;;;;;;4884545;29;20554;-85
2022/10/05 06:12:43;;;;;;;10.43;5.45;;;15.10;99.90;;;;;;4884222;29;20045;-85
2022/10/05 06:15:33;;;;;;;8.38;4.93;;;15.00;99.90;;;;;;4870252;29;20056;-85
2022/10/05 06:18:07;;;;;;;12.32;5.22;;;15.10;99.90;;;;;;4885529;29;20045;-84
2022/10/05 06:20:59;;;;;;;6.55;4.85;;;15.10;99.90;;;;;;4902190;29;20029;-85
2022/10/05 06:23:38;;;;;;;8.25;4.40;;;15.10;99.90;;;;;;4888519;29;20048;-85
2022/10/05 06:26:10;;;;;;;7.32;4.78;;;15.10;99.90;;;;;;4898150;29;20390;-84
2022/10/05 06:28:35;;;;;;;8.10;4.65;;;15.10;99.90;;;;;;4883253;29;20080;-84
2022/10/05 06:31:43;;;;;;;6.25;4.43;;;15.10;99.90;;;;;;4874453;29;20067;-85
2022/10/05 06:34:45;;;;;;;6.97;4.68;;;15.20;99.90;;;;;;4888697;29;20101;-85
2022/10/05 06:37:27;;;;;;;8.70;4.88;;;15.20;99.90;;;;;;4900350;29;20045;-85
2022/10/05 06:40:28;;;;;;;6.88;4.82;;;15.20;99.90;;;;;;4883647;29;20609;-85
2022/10/05 06:43:06;;;;;;;8.80;5.22;;;15.10;99.90;;;;;;4868769;29;20087;-85
2022/10/05 06:45:44;;;;;;;8.27;5.20;;;15.20;99.90;;;;;;4871760;29;20048;-85
2022/10/05 06:48:22;;;;;;;8.40;5.00;;;15.20;99.90;;;;;;4859588;29;20040;-85
2022/10/05 06:51:22;;;;;;;11.93;6.25;;;15.10;99.90;;;;;;4867219;29;20801;-85
2022/10/05 06:54:15;;;;;;;7.68;5.05;;;15.10;99.90;;;;;;4884948;29;20152;-85
2022/10/05 06:57:11;;;;;;;7.05;5.32;;;15.10;99.90;;;;;;4890655;29;20052;-86
2022/10/05 06:59:58;;;;;;;10.82;5.30;;;15.10;99.90;;;;;;4864897;29;20059;-85
2022/10/05 07:02:38;;;;;;;8.32;4.90;;;15.10;99.90;;;;;;4882457;29;20076;-85
2022/10/05 07:05:09;;;;;;;7.32;4.95;;;15.10;99.90;;;;;;4875484;29;20119;-85
2022/10/05 07:07:56;;;;;;;7.20;5.13;;;15.20;99.90;;;;;;4871037;29;20069;-85
2022/10/05 07:10:44;;;;;;;7.25;5.28;;;15.10;99.90;;;;;;4868519;29;20523;-85
2022/10/05 07:13:47;;;;;;;8.50;5.07;;;15.10;99.90;;;;;;4882623;29;20464;-85
2022/10/05 07:16:45;;;;;;;7.38;5.28;;;15.10;99.90;;;;;;4882894;29;20144;-85
2022/10/05 07:19:38;;;;;;;7.57;5.00;;;15.20;99.90;;;;;;4855951;29;20096;-85
2022/10/05 07:22:46;;;;;;;6.70;4.88;;;15.30;99.90;;;;;;4856329;29;20083;-85
2022/10/05 07:25:33;;;;;;;6.57;5.00;;;15.40;99.90;;;;;;4869526;29;20052;-85
2022/10/05 07:28:39;;;;;;;6.00;4.65;;;15.30;99.90;;;;;;4850498;29;20045;-84
2022/10/05 07:31:20;;;;;;;6.32;4.63;;;15.30;99.90;;;;;;4853028;29;20097;-85
2022/10/05 07:34:08;;;;;;;7.97;4.93;;;15.30;99.90;;;;;;4872649;29;20133;-85
2022/10/05 07:39:44;;;;;;;6.68;4.60;;;15.30;99.90;;;;;;4856805;29;20547;-85
2022/10/05 07:42:19;;;;;;;5.90;4.75;;;15.20;99.90;;;;;;4900152;29;20048;-85
2022/10/05 07:44:53;;;;;;;7.60;4.47;;;15.30;99.90;;;;;;4885288;29;20382;-85
2022/10/05 07:47:39;;;;;;;6.32;4.05;;;15.30;99.90;;;;;;4870852;29;20043;-85
2022/10/05 07:50:26;;;;;;;6.57;4.70;;;15.30;99.90;;;;;;4869405;29;20120;-86
2022/10/05 07:52:57;;;;;;;7.00;4.10;;;15.40;99.90;;;;;;4881239;29;20051;-85
2022/10/05 07:55:36;;;;;;;5.03;4.03;;;15.40;99.90;;;;;;4853614;29;20047;-85
2022/10/05 07:58:15;;;;;;;5.93;3.60;;;15.40;99.90;;;;;;4883649;29;20421;-85
2022/10/05 08:01:06;;;;;;;8.65;3.67;;;15.50;99.90;;;;;;4866506;29;20049;-86
2022/10/05 08:03:51;;;;;;;3.67;3.00;;;15.50;99.90;;;;;;4880839;29;20048;-85
2022/10/05 08:06:43;;;;;;;4.65;3.10;;;15.60;99.90;;;;;;4868638;29;20041;-86
2022/10/05 08:09:21;;;;;;;4.85;3.15;;;15.70;99.90;;;;;;4842037;29;20052;-85
2022/10/05 08:12:10;;;;;;;4.47;3.20;;;15.70;99.90;;;;;;4887416;29;20049;-85
2022/10/05 08:14:50;;;;;;;3.92;2.72;;;15.80;99.90;;;;;;4866529;29;20493;-85
2022/10/05 08:17:51;;;;;;;4.25;3.05;;;15.90;99.90;;;;;;4872295;29;20096;-85
2022/10/05 08:20:36;;;;;;;3.00;2.70;;;15.80;99.90;;;;;;4864870;29;20037;-86
2022/10/05 08:23:31;;;;;;;4.35;2.85;;;15.80;99.90;;;;;;4869063;29;20041;-85
2022/10/05 08:26:20;;;;;;;3.42;2.85;;;15.80;99.90;;;;;;4859705;29;20559;-85
2022/10/05 08:29:12;;;;;;;5.10;2.70;;;15.90;99.90;;;;;;4853783;29;20325;-85
2022/10/05 08:31:42;;;;;;;3.50;2.80;;;16.00;99.90;;;;;;4886796;29;20170;-86
2022/10/05 08:34:32;;;;;;;5.35;2.92;;;16.10;99.90;;;;;;4871625;29;20296;-84
2022/10/05 08:37:17;;;;;;;4.45;3.45;;;16.30;99.90;;;;;;4879015;29;20064;-85
2022/10/05 08:40:05;;;;;;;;;;;16.30;99.90;;;;;;4885289;29;20067;-85
2022/10/05 08:42:43;;;;;;;5.22;3.40;;;16.40;99.90;;;;;;4873070;29;19950;-86
2022/10/05 08:45:46;;;;;;;5.47;4.10;;;16.60;99.90;;;;;;4883108;29;20053;-85
2022/10/05 08:48:27;;;;;;;5.53;3.65;;;16.60;99.90;;;;;;4869006;29;20111;-85
2022/10/05 08:51:22;;;;;;;6.07;4.10;;;16.80;99.90;;;;;;4864614;29;20049;-85
2022/10/05 08:54:25;;;;;;;4.47;3.88;;;17.00;99.90;;;;;;4869236;29;20064;-85
2022/10/05 08:57:28;;;;;;;5.20;3.70;;;17.10;99.90;;;;;;4858250;29;20282;-86
2022/10/05 09:00:16;;;;;;;5.45;3.85;;;17.10;99.90;;;;;;4883540;29;20064;-85
2022/10/05 09:02:59;;;;;;;4.72;3.55;;;17.30;99.90;;;;;;4855545;29;20033;-86
2022/10/05 09:05:44;;;;;;;4.43;3.47;;;17.30;99.90;;;;;;4884921;29;20049;-86
2022/10/05 09:08:37;;;;;;;5.53;3.70;;;17.40;1.00;;;;;;4857215;29;20041;-86
2022/10/05 09:11:23;;;;;;;5.18;3.70;;;17.40;1.00;;;;;;4896647;29;20107;-86
2022/10/05 09:13:58;;;;;;;;;;;17.40;90.60;;;;;;4873098;29;20040;-85
2022/10/05 09:16:32;;;;;;;5.17;4.17;;;17.50;1.00;;;;;;4870585;29;19931;-85
2022/10/05 09:19:25;;;;;;;4.68;3.83;;;17.40;99.90;;;;;;4884069;29;20033;-85
2022/10/05 09:22:03;;;;;;;5.85;4.00;;;17.50;1.00;;;;;;4884960;29;20842;-85
2022/10/05 09:24:47;;;;;;;6.43;4.20;;;17.50;99.90;;;;;;4882695;29;20437;-86
2022/10/05 09:27:15;;;;;;;5.93;3.60;;;17.70;99.90;;;;;;4897575;29;20034;-86
2022/10/05 09:30:19;;;;;;;6.18;3.50;;;17.60;99.90;;;;;;4865823;29;20091;-85
2022/10/05 09:33:12;;;;;;;6.55;4.00;;;17.60;99.90;;;;;;4884928;29;20128;-85
2022/10/05 09:35:57;;;;;;;4.20;3.50;;;17.50;99.90;;;;;;4868255;29;20080;-86
2022/10/05 09:38:53;;;;;;;4.70;3.40;;;17.70;99.90;;;;;;4853446;29;20045;-86
2022/10/05 09:41:22;;;;;;;5.10;3.63;;;17.70;99.90;;;;;;4871182;29;20249;-86
2022/10/05 09:43:50;;;;;;;8.25;3.65;;;17.60;99.90;;;;;;4895458;29;20120;-86
2022/10/05 09:46:53;;;;;;;5.15;3.40;;;17.80;99.90;;;;;;4872782;29;20040;-86
2022/10/05 09:49:41;;;;;;;9.23;3.38;;;17.80;99.90;;;;;;4854726;29;20087;-85
2022/10/05 09:52:43;;;;;;;5.97;3.47;;;17.80;99.90;;;;;;4886641;29;20041;-86
2022/10/05 09:55:40;;;;;;;3.85;3.10;;;17.80;99.90;;;;;;4866799;29;20048;-86
2022/10/05 09:58:13;;;;;;;3.90;2.75;;;17.80;1.00;;;;;;4882025;29;20100;-85
2022/10/05 10:01:00;;;;;;;3.53;3.00;;;17.80;99.90;;;;;;4882079;29;20060;-86
2022/10/05 10:03:55;;;;;;;5.05;3.40;;;17.80;99.90;;;;;;4874388;29;20052;-86
2022/10/05 10:06:53;;;;;;;3.92;3.13;;;17.70;16.30;;;;;;4869386;29;20533;-84
2022/10/05 10:09:38;;;;;;;3.13;2.83;;;17.50;99.90;;;;;;4898899;29;20073;-86
2022/10/05 10:12:10;;;;;;;4.60;3.13;;;17.60;99.90;;;;;;4875133;29;20478;-86
2022/10/05 10:15:13;;;;;;;4.28;2.95;;;17.60;99.90;;;;;;4855983;29;20044;-85
2022/10/05 10:18:37;;;;;;;5.90;3.00;;;17.60;99.90;;;;;;4872876;29;20168;-86
2022/10/05 10:21:41;;;;;;;5.25;2.70;;;17.50;99.90;;;;;;4850526;29;20535;-85
2022/10/05 10:24:40;;;;;;;5.95;2.95;;;17.50;99.90;;;;;;4867177;29;20045;-85
2022/10/05 10:27:33;;;;;;;4.32;2.90;;;17.50;99.90;;;;;;4860705;29;20049;-86
2022/10/05 10:30:26;;;;;;;4.63;3.15;;;17.50;1.00;;;;;;4873715;29;20057;-85
2022/10/05 10:33:14;;;;;;;3.15;2.83;;;17.60;1.00;;;;;;4883448;29;20189;-85
2022/10/05 10:36:02;;;;;;;9.30;3.42;;;17.60;1.00;;;;;;4883201;29;20049;-86
2022/10/05 10:38:57;;;;;;;5.60;3.35;;;17.50;99.90;;;;;;4871651;29;20429;-85
2022/10/05 10:41:49;;;;;;;3.88;3.47;;;17.60;57.40;;;;;;4883991;29;20533;-85
2022/10/05 10:44:40;;;;;;;4.97;3.28;;;17.40;99.90;;;;;;4877083;29;21294;-86
2022/10/05 10:47:30;;;;;;;4.35;3.50;;;17.40;99.90;;;;;;4857162;29;20074;-85
2022/10/05 10:49:56;;;;;;;4.90;3.28;;;17.40;99.90;;;;;;4899049;29;20093;-85
2022/10/05 10:52:40;;;;;;;6.00;4.07;;;17.50;1.00;;;;;;4872155;29;20056;-86
2022/10/05 10:55:05;;;;;;;3.97;3.17;;;17.40;99.90;;;;;;4890014;29;20413;-85
2022/10/05 10:57:34;;;;;;;6.45;3.47;;;17.40;99.90;;;;;;4868047;29;20357;-85
2022/10/05 11:00:00;;;;;;;4.10;3.33;;;17.30;99.90;;;;;;4900158;29;20060;-86
2022/10/05 11:02:52;;;;;;;8.38;3.35;;;17.50;96.40;;;;;;4874411;29;20485;-85
2022/10/05 11:05:41;;;;;;;3.78;3.35;;;17.40;99.90;;;;;;4882185;29;20040;-85
2022/10/05 11:08:16;;;;;;;5.50;3.50;;;17.50;1.00;;;;;;4868651;29;20057;-85
2022/10/05 11:11:00;;;;;;;4.20;3.80;;;17.50;99.90;;;;;;4869162;29;20083;-85
2022/10/05 11:13:26;;;;;;;4.40;3.60;;;17.60;1.00;;;;;;4880449;29;20041;-86
2022/10/05 11:16:29;;;;;;;5.68;3.90;;;17.60;18.40;;;;;;4885657;29;20053;-85
2022/10/05 11:19:04;;;;;;;5.00;3.80;;;17.60;99.90;;;;;;4897016;29;20044;-85
2022/10/05 11:21:49;;;;;;;3.95;3.50;;;17.40;99.90;;;;;;4868059;29;20048;-86
2022/10/05 11:24:20;;;;;;;3.90;3.38;;;17.40;99.90;;;;;;4858874;29;20037;-85
2022/10/05 11:26:55;;;;;;;3.90;3.55;;;17.50;99.90;;;;;;4884366;29;20214;-85
2022/10/05 11:30:00;;;;;;;7.13;3.15;;;17.40;98.10;;;;;;4885880;29;20048;-85
2022/10/05 11:32:48;;;;;;;4.40;3.35;;;17.30;1.00;;;;;;4866294;29;20089;-85
2022/10/05 11:35:58;;;;;;;4.38;3.30;;;17.50;99.90;;;;;;4879818;29;20049;-86
2022/10/05 11:38:42;;;;;;;8.10;3.38;;;17.40;99.90;;;;;;4827522;29;20095;-85
2022/10/05 11:41:16;;;;;;;4.10;3.30;;;17.40;99.90;;;;;;4872163;29;20048;-86
2022/10/05 11:43:55;;;;;;;6.35;3.38;;;17.40;1.00;;;;;;4871986;29;20223;-85
2022/10/05 11:46:44;;;;;;;5.57;3.47;;;17.30;30.00;;;;;;4885914;29;20465;-85
2022/10/05 11:49:38;;;;;;;5.47;3.80;;;17.40;1.00;;;;;;4882952;29;20037;-85
2022/10/05 11:52:21;;;;;;;5.40;3.80;;;17.40;99.90;;;;;;4872473;29;20390;-85
2022/10/05 11:55:24;;;;;;;4.43;3.83;;;17.30;99.90;;;;;;4858157;29;20060;-86
2022/10/05 11:58:08;;;;;;;4.30;3.83;;;17.30;1.00;;;;;;4873634;29;20044;-86
2022/10/05 12:01:09;;;;;;;4.43;3.92;;;17.20;99.90;;;;;;4865183;29;20156;-86
2022/10/05 12:03:56;;;;;;;5.07;4.45;;;17.30;99.90;;;;;;4833266;29;20139;-85
2022/10/05 12:06:43;;;;;;;7.68;4.35;;;17.20;99.90;;;;;;4865318;29;20117;-85
2022/10/05 12:09:37;;;;;;;4.65;4.13;;;17.20;99.90;;;;;;4876374;29;20080;-86
2022/10/05 12:12:14;;;;;;;6.75;4.78;;;17.20;77.30;;;;;;4851647;29;20089;-85
2022/10/05 12:14:44;;;;;;;5.97;4.40;;;17.20;99.90;;;;;;4878075;29;20052;-85
2022/10/05 12:17:41;;;;;;;6.45;4.75;;;17.20;99.90;;;;;;4878200;29;20044;-86
2022/10/05 12:20:17;;;;;;;5.47;4.60;;;17.30;99.90;;;;;;4869623;29;20041;-85
2022/10/05 12:22:55;;;;;;;6.30;4.60;;;17.30;99.90;;;;;;4854155;29;20424;-85
2022/10/05 12:25:31;;;;;;;6.95;4.55;;;17.30;99.90;;;;;;4878465;29;20053;-85
2022/10/05 12:28:15;;;;;;;5.18;3.90;;;17.30;99.90;;;;;;4879950;29;20132;-85
2022/10/05 12:31:11;;;;;;;6.07;4.15;;;17.20;1.00;;;;;;4857055;29;20073;-85
2022/10/05 12:33:46;;;;;;;7.05;3.80;;;17.20;99.90;;;;;;4876640;29;20302;-84
2022/10/05 12:36:51;;;;;;;5.15;3.85;;;17.30;99.90;;;;;;4878737;29;20045;-86
2022/10/05 12:39:52;;;;;;;4.95;3.88;;;17.30;99.90;;;;;;4880796;29;20044;-86
2022/10/05 12:42:39;;;;;;;4.55;3.47;;;17.30;99.90;;;;;;4877087;29;20571;-86
2022/10/05 12:45:16;;;;;;;4.57;3.42;;;17.20;99.90;;;;;;4847941;29;20445;-85
2022/10/05 12:48:20;;;;;;;4.10;3.70;;;17.20;99.90;;;;;;4865690;29;20064;-86
2022/10/05 12:50:50;;;;;;;5.57;3.70;;;17.20;99.90;;;;;;4863791;29;20359;-86
2022/10/05 12:53:39;;;;;;;5.03;3.30;;;17.30;39.50;;;;;;4859862;29;20413;-85
2022/10/05 12:56:15;;;;;;;4.03;3.42;;;17.20;1.00;;;;;;4862510;29;20326;-86
2022/10/05 12:58:40;;;;;;;6.40;3.33;;;17.40;13.80;;;;;;4852767;29;20052;-86
2022/10/05 13:01:28;;;;;;;3.83;3.40;;;17.40;99.90;;;;;;4881172;29;20065;-85
2022/10/05 13:04:23;;;;;;;5.53;3.42;;;17.40;99.90;;;;;;4875745;29;20053;-85
2022/10/05 13:07:23;;;;;;;5.22;3.33;;;17.40;99.90;;;;;;4873378;29;20041;-84
2022/10/05 13:10:03;;;;;;;6.15;3.45;;;17.40;99.90;;;;;;4858980;29;20049;-85
2022/10/05 13:12:34;;;;;;;7.85;3.67;;;17.40;69.20;;;;;;4882204;29;20068;-86
2022/10/05 13:15:12;;;;;;;4.22;3.20;;;17.50;1.00;;;;;;4867658;29;20050;-85
2022/10/05 13:18:02;;;;;;;4.78;3.22;;;17.40;99.90;;;;;;4882263;29;20049;-85
2022/10/05 13:20:30;;;;;;;5.05;3.50;;;17.50;99.90;;;;;;4884265;29;20482;-85
2022/10/05 13:23:23;;;;;;;4.00;3.53;;;17.70;1.00;;;;;;4867521;29;20106;-85
2022/10/05 13:26:14;;;;;;;5.68;3.60;;;17.80;1.00;;;;;;4885740;29;20078;-85
2022/10/05 13:28:59;;;;;;;6.47;3.65;;;17.70;1.00;;;;;;4884852;29;20055;-85
2022/10/05 13:31:39;;;;;;;4.95;3.60;;;17.50;1.00;;;;;;4883441;29;20056;-86
2022/10/05 13:34:28;;;;;;;5.28;3.47;;;17.70;75.70;;;;;;4883607;29;20643;-85
2022/10/05 13:37:13;;;;;;;4.50;3.50;;;17.80;93.70;;;;;;4872795;29;20726;-87
2022/10/05 13:40:13;;;;;;;3.97;3.47;;;17.70;1.00;;;;;;4842305;29;20037;-86
2022/10/05 13:43:16;;;;;;;4.55;3.15;;;17.90;1.00;;;;;;4899158;29;20041;-86
2022/10/05 13:46:15;;;;;;;7.13;4.03;;;18.00;1.00;;;;;;4887747;29;20045;-85
2022/10/05 13:49:00;;;;;;;5.78;4.10;;;17.80;1.00;;;;;;4856739;29;20418;-86
2022/10/05 13:51:48;;;;;;;4.80;4.00;;;17.90;28.00;;;;;;4881508;29;20459;-86
2022/10/05 13:54:20;;;;;;;6.70;4.35;;;17.90;99.90;;;;;;4870734;29;20049;-86
2022/10/05 13:57:00;;;;;;;7.78;4.43;;;17.90;1.00;;;;;;4889175;29;20045;-85
2022/10/05 13:59:41;;;;;;;8.52;4.40;;;18.00;99.90;;;;;;4896994;29;20443;-86
2022/10/05 14:02:26;;;;;;;6.10;4.22;;;18.20;99.90;;;;;;4903217;29;20044;-86
2022/10/05 14:05:00;;;;;;;8.02;4.35;;;18.30;99.90;;;;;;4874851;29;20049;-86
2022/10/05 14:07:37;;;;;;;5.68;4.00;;;18.40;1.00;;;;;;4855731;29;20081;-85
2022/10/05 14:10:10;;;;;;;7.93;3.53;;;18.60;1.00;;;;;;4856144;29;20037;-86
2022/10/05 14:12:40;;;;;;;5.82;4.05;;;20.00;93.20;;;;;;4884955;29;20093;-86
2022/10/05 14:15:33;;;;;;;6.18;3.97;;;19.10;99.90;;;;;;4871530;29;20045;-86
2022/10/05 14:18:19;;;;;;;4.70;3.88;;;19.30;99.90;;;;;;4885044;29;20421;-85